createdAt,value
2023-05-24T00:00:57.333Z,4.00
2023-05-24T00:03:25.480Z,3.00
2023-05-24T00:05:53.602Z,4.00
2023-05-24T00:08:21.701Z,3.00
2023-05-24T00:10:49.773Z,3.00
2023-05-24T00:13:17.874Z,3.40
2023-05-24T00:15:47.283Z,3.00
2023-05-24T00:18:17.728Z,3.00
2023-05-24T00:20:45.941Z,3.40
2023-05-24T00:23:14.438Z,5.00
2023-05-24T00:25:42.467Z,4.00
2023-05-24T00:28:10.527Z,5.40
2023-05-24T00:30:38.651Z,4.00
2023-05-24T00:33:08.096Z,2.60
2023-05-24T00:35:36.149Z,3.00
2023-05-24T00:38:04.213Z,5.00
2023-05-24T00:40:32.271Z,4.00
2023-05-24T00:43:00.322Z,4.00
2023-05-24T00:45:28.406Z,4.00
2023-05-24T00:47:56.502Z,3.00
2023-05-24T00:50:26.043Z,4.00
2023-05-24T00:52:54.894Z,3.00
2023-05-24T00:55:22.951Z,5.25
2023-05-24T00:57:52.392Z,5.40
2023-05-24T01:00:20.734Z,3.60
2023-05-24T01:02:51.532Z,3.40
2023-05-24T01:05:20.185Z,4.00
2023-05-24T01:08:03.775Z,2.00
2023-05-24T01:10:35.315Z,2.25
2023-05-24T01:13:11.762Z,3.00
2023-05-24T01:15:43.958Z,4.00
2023-05-24T01:18:17.498Z,3.00
2023-05-24T01:20:45.715Z,4.00
2023-05-24T01:23:42.016Z,3.00
2023-05-24T01:26:20.602Z,3.75
2023-05-24T01:28:50.392Z,2.00
2023-05-24T01:31:18.894Z,4.00
2023-05-24T01:33:46.992Z,4.00
2023-05-24T01:36:15.049Z,3.50
2023-05-24T01:38:43.114Z,5.00
2023-05-24T01:41:16.934Z,3.00
2023-05-24T01:43:47.911Z,3.00
2023-05-24T01:46:23.832Z,3.00
2023-05-24T01:48:55.923Z,4.00
2023-05-24T01:51:24.935Z,3.40
2023-05-24T01:53:52.968Z,4.00
2023-05-24T01:56:21.201Z,4.50
2023-05-24T01:58:50.253Z,4.00
2023-05-24T02:01:19.781Z,4.00
2023-05-24T02:03:47.864Z,4.00
2023-05-24T02:06:15.926Z,4.00
2023-05-24T02:08:43.956Z,3.00
2023-05-24T02:11:12.022Z,2.60
2023-05-24T02:13:40.054Z,3.00
2023-05-24T02:16:08.522Z,3.00
2023-05-24T02:18:38.053Z,2.60
2023-05-24T02:21:06.196Z,3.00
2023-05-24T02:23:34.246Z,4.00
2023-05-24T02:26:02.512Z,2.60
2023-05-24T02:28:32.428Z,3.75
2023-05-24T02:31:00.622Z,4.25
2023-05-24T02:33:29.997Z,7.75
2023-05-24T02:35:59.505Z,3.00
2023-05-24T02:38:27.617Z,6.00
2023-05-24T02:40:55.693Z,3.75
2023-05-24T02:43:23.841Z,3.25
2023-05-24T02:45:51.911Z,3.00
2023-05-24T02:48:19.990Z,3.80
2023-05-24T02:50:48.395Z,2.00
2023-05-24T02:53:17.891Z,4.00
2023-05-24T02:55:46.801Z,3.00
2023-05-24T02:58:17.757Z,4.60
2023-05-24T03:00:48.105Z,5.00
2023-05-24T03:03:16.556Z,3.40
2023-05-24T03:05:46.309Z,4.40
2023-05-24T03:08:14.984Z,4.00
2023-05-24T03:10:44.678Z,2.00
2023-05-24T03:13:14.097Z,3.00
2023-05-24T03:15:43.810Z,3.00
2023-05-24T03:18:11.911Z,2.00
2023-05-24T03:20:41.728Z,3.00
2023-05-24T03:23:10.742Z,4.40
2023-05-24T03:25:38.902Z,3.60
2023-05-24T03:28:08.434Z,3.00
2023-05-24T03:30:36.635Z,4.40
2023-05-24T03:33:04.896Z,4.00
2023-05-24T03:35:33.607Z,4.00
2023-05-24T03:38:01.726Z,4.20
2023-05-24T03:40:33.815Z,4.40
2023-05-24T03:43:14.801Z,4.50
2023-05-24T03:45:47.565Z,3.60
2023-05-24T03:48:15.864Z,4.00
2023-05-24T03:50:44.387Z,4.50
2023-05-24T03:53:12.815Z,6.00
2023-05-24T03:55:40.915Z,4.00
2023-05-24T03:58:09.060Z,4.00
2023-05-24T04:00:38.855Z,2.75
2023-05-24T04:03:07.330Z,5.00
2023-05-24T04:05:35.676Z,5.00
2023-05-24T04:08:04.368Z,4.00
2023-05-24T04:10:32.480Z,4.00
2023-05-24T04:13:00.890Z,3.00
2023-05-24T04:15:29.016Z,4.00
2023-05-24T04:17:58.713Z,4.00
2023-05-24T04:20:27.935Z,5.00
2023-05-24T04:22:56.396Z,5.25
2023-05-24T04:25:25.058Z,5.00
2023-05-24T04:27:53.625Z,5.00
2023-05-24T04:30:22.309Z,5.00
2023-05-24T04:32:51.555Z,5.20
2023-05-24T04:35:21.338Z,4.00
2023-05-24T04:37:50.437Z,3.00
2023-05-24T04:40:22.981Z,5.40
2023-05-24T04:42:51.562Z,4.00
2023-05-24T04:45:19.714Z,4.75
2023-05-24T04:47:47.927Z,4.50
2023-05-24T04:50:16.150Z,4.75
2023-05-24T04:52:45.956Z,6.00
2023-05-24T04:55:14.073Z,4.25
2023-05-24T04:57:42.209Z,3.25
2023-05-24T05:00:11.352Z,4.00
2023-05-24T05:02:39.577Z,6.60
2023-05-24T05:05:08.539Z,5.00
2023-05-24T05:07:36.645Z,4.00
2023-05-24T05:10:06.994Z,6.00
2023-05-24T05:12:35.106Z,4.60
2023-05-24T05:15:03.206Z,4.00
2023-05-24T05:17:31.371Z,5.40
2023-05-24T05:19:59.563Z,4.25
2023-05-24T05:22:29.396Z,3.00
2023-05-24T05:24:58.744Z,4.50
2023-05-24T05:27:28.206Z,6.00
2023-05-24T05:29:56.346Z,6.20
2023-05-24T05:32:24.591Z,5.00
2023-05-24T05:34:52.778Z,6.20
2023-05-24T05:37:20.936Z,6.20
2023-05-24T05:39:49.041Z,6.20
2023-05-24T05:42:17.117Z,8.80
2023-05-24T05:44:46.663Z,10.40
2023-05-24T05:47:14.747Z,10.00
2023-05-24T05:49:42.898Z,7.00
2023-05-24T05:52:11.645Z,5.00
2023-05-24T05:54:39.809Z,4.00
2023-05-24T05:57:10.661Z,6.00
2023-05-24T05:59:38.911Z,6.00
2023-05-24T06:02:08.715Z,5.00
2023-05-24T06:04:36.917Z,3.00
2023-05-24T06:07:06.470Z,4.00
2023-05-24T06:09:34.567Z,4.00
2023-05-24T06:12:02.668Z,5.75
2023-05-24T06:14:31.825Z,3.00
2023-05-24T06:17:00.384Z,4.00
2023-05-24T06:19:30.005Z,4.75
2023-05-24T06:21:58.122Z,6.00
2023-05-24T06:24:26.241Z,7.00
2023-05-24T06:26:54.351Z,6.00
2023-05-24T06:29:22.943Z,4.20
2023-05-24T06:31:51.405Z,6.00
2023-05-24T06:34:21.418Z,4.00
2023-05-24T06:36:53.004Z,5.40
2023-05-24T06:39:21.175Z,5.00
2023-05-24T06:41:51.441Z,5.40
2023-05-24T06:44:31.912Z,6.00
2023-05-24T06:47:00.230Z,5.75
2023-05-24T06:49:28.602Z,4.00
2023-05-24T06:51:58.086Z,5.00
2023-05-24T06:54:26.178Z,4.60
2023-05-24T06:56:54.297Z,4.00
2023-05-24T06:59:23.750Z,4.25
2023-05-24T07:01:58.224Z,5.00
2023-05-24T07:04:28.503Z,5.00
2023-05-24T07:06:58.537Z,4.60
2023-05-24T07:09:26.781Z,5.00
2023-05-24T07:11:54.908Z,3.40
2023-05-24T07:14:26.091Z,4.00
2023-05-24T07:16:57.476Z,4.00
2023-05-24T07:19:29.208Z,4.00
2023-05-24T07:21:58.933Z,4.00
2023-05-24T07:24:27.093Z,4.00
2023-05-24T07:26:56.856Z,3.75
2023-05-24T07:29:25.248Z,4.00
2023-05-24T07:31:55.961Z,5.75
2023-05-24T07:34:27.569Z,5.00
2023-05-24T07:36:55.750Z,5.40
2023-05-24T07:39:25.396Z,4.00
2023-05-24T07:41:53.634Z,5.00
2023-05-24T07:44:21.795Z,4.00
2023-05-24T07:46:50.058Z,5.00
2023-05-24T07:49:18.221Z,5.00
2023-05-24T07:51:46.633Z,5.20
2023-05-24T07:54:14.767Z,6.00
2023-05-24T07:56:44.657Z,4.00
2023-05-24T07:59:12.965Z,5.80
2023-05-24T08:01:41.490Z,3.80
2023-05-24T08:04:10.566Z,4.00
2023-05-24T08:06:39.132Z,4.40
2023-05-24T08:09:08.574Z,4.00
2023-05-24T08:11:36.673Z,3.00
2023-05-24T08:14:06.115Z,4.00
2023-05-24T08:16:34.237Z,3.00
2023-05-24T08:19:02.353Z,3.20
2023-05-24T08:21:30.439Z,3.00
2023-05-24T08:23:58.580Z,4.00
2023-05-24T08:26:27.039Z,5.00
2023-05-24T08:28:55.146Z,4.00
2023-05-24T08:31:24.652Z,5.00
2023-05-24T08:33:53.303Z,3.40
2023-05-24T08:36:21.387Z,4.00
2023-05-24T08:38:49.479Z,5.00
2023-05-24T08:41:17.586Z,3.60
2023-05-24T08:43:45.778Z,4.75
2023-05-24T08:46:13.976Z,6.00
2023-05-24T08:48:46.682Z,6.00
2023-05-24T08:51:15.937Z,3.00
2023-05-24T08:53:49.024Z,7.00
2023-05-24T08:56:18.474Z,5.00
2023-05-24T08:58:47.443Z,5.40
2023-05-24T09:01:16.131Z,5.00
2023-05-24T09:03:46.301Z,6.20
2023-05-24T09:06:14.835Z,5.40
2023-05-24T09:08:43.988Z,6.00
2023-05-24T09:11:12.318Z,5.00
2023-05-24T09:13:40.693Z,4.00
2023-05-24T09:16:09.185Z,5.60
2023-05-24T09:18:37.258Z,5.00
2023-05-24T09:21:08.236Z,6.00
2023-05-24T09:23:36.395Z,5.00
2023-05-24T09:26:08.547Z,4.60
2023-05-24T09:28:36.671Z,8.00
2023-05-24T09:31:07.822Z,5.00
2023-05-24T09:33:36.210Z,4.60
2023-05-24T09:36:06.293Z,9.00
2023-05-24T09:38:36.673Z,5.40
2023-05-24T09:41:06.533Z,5.60
2023-05-24T09:43:36.333Z,6.00
2023-05-24T09:46:04.841Z,8.60
2023-05-24T09:48:33.149Z,7.60
2023-05-24T09:51:04.534Z,5.00
2023-05-24T09:53:35.073Z,7.00
2023-05-24T09:56:05.215Z,6.00
2023-05-24T09:58:34.042Z,8.00
2023-05-24T10:01:06.705Z,7.00
2023-05-24T10:03:35.102Z,8.00
2023-05-24T10:06:05.000Z,7.50
2023-05-24T10:08:34.868Z,9.25
2023-05-24T10:11:03.923Z,8.75
2023-05-24T10:13:32.408Z,10.00
2023-05-24T10:16:00.570Z,8.20
2023-05-24T10:18:28.700Z,8.00
2023-05-24T10:20:57.073Z,7.00
2023-05-24T10:23:25.250Z,8.00
2023-05-24T10:25:57.681Z,6.00
2023-05-24T10:28:25.769Z,9.00
2023-05-24T10:31:00.624Z,10.40
2023-05-24T10:33:28.817Z,7.60
2023-05-24T10:35:56.916Z,6.40
2023-05-24T10:38:25.068Z,8.00
2023-05-24T10:40:57.610Z,8.00
2023-05-24T10:43:25.785Z,10.00
2023-05-24T10:45:53.948Z,5.60
2023-05-24T10:48:41.009Z,6.75
2023-05-24T10:51:34.882Z,7.75
2023-05-24T10:54:13.800Z,7.25
2023-05-24T10:56:44.281Z,5.60
2023-05-24T10:59:23.259Z,10.00
2023-05-24T11:01:56.775Z,6.50
2023-05-24T11:04:24.957Z,8.00
2023-05-24T11:06:56.376Z,8.50
2023-05-24T11:09:24.555Z,7.00
2023-05-24T11:11:56.346Z,5.40
2023-05-24T11:14:25.557Z,7.00
2023-05-24T11:16:53.761Z,9.00
2023-05-24T11:19:22.925Z,6.00
2023-05-24T11:21:51.716Z,7.00
2023-05-24T11:24:20.131Z,7.80
2023-05-24T11:26:48.299Z,7.00
2023-05-24T11:29:21.024Z,6.00
2023-05-24T11:31:50.873Z,4.00
2023-05-24T11:34:19.156Z,6.00
2023-05-24T11:36:47.672Z,6.80
2023-05-24T11:39:16.381Z,7.00
2023-05-24T11:41:44.692Z,6.00
2023-05-24T11:44:13.027Z,5.75
2023-05-24T11:46:42.775Z,5.80
2023-05-24T11:49:13.828Z,7.00
2023-05-24T11:51:41.925Z,6.80
2023-05-24T11:54:10.050Z,4.75
2023-05-24T11:56:38.147Z,3.25
2023-05-24T11:59:16.588Z,5.00
2023-05-24T12:01:46.001Z,7.00
2023-05-24T12:04:14.188Z,5.00
2023-05-24T12:06:42.863Z,3.60
2023-05-24T12:09:13.349Z,4.00
2023-05-24T12:11:42.261Z,4.00
2023-05-24T12:14:13.725Z,4.50
2023-05-24T12:16:43.000Z,3.00
2023-05-24T12:19:31.652Z,4.00
2023-05-24T12:22:01.158Z,5.20
2023-05-24T12:24:29.317Z,7.00
2023-05-24T12:27:00.167Z,5.00
2023-05-24T12:29:28.589Z,4.50
2023-05-24T12:31:56.717Z,5.00
2023-05-24T12:34:26.238Z,9.50
2023-05-24T12:36:54.409Z,10.00
2023-05-24T12:39:23.275Z,5.50
2023-05-24T12:41:52.179Z,3.40
2023-05-24T12:44:25.220Z,5.00
2023-05-24T12:46:54.559Z,6.00
2023-05-24T12:49:22.895Z,4.80
2023-05-24T12:51:52.860Z,5.00
2023-05-24T12:54:23.005Z,5.00
2023-05-24T12:56:53.466Z,5.00
2023-05-24T12:59:23.292Z,3.60
2023-05-24T13:01:52.527Z,4.50
2023-05-24T13:04:21.798Z,4.40
2023-05-24T13:06:49.909Z,6.50
2023-05-24T13:09:21.715Z,6.00
2023-05-24T13:11:50.169Z,6.00
2023-05-24T13:14:18.429Z,5.60
2023-05-24T13:16:46.611Z,4.00
2023-05-24T13:19:14.818Z,5.00
2023-05-24T13:21:43.034Z,5.80
2023-05-24T13:24:11.174Z,5.75
2023-05-24T13:26:40.695Z,4.20
2023-05-24T13:29:32.402Z,5.00
2023-05-24T13:31:56.856Z,7.00
2023-05-24T13:34:25.889Z,6.00
2023-05-24T13:36:54.115Z,6.80
2023-05-24T13:39:22.357Z,7.00
2023-05-24T13:41:51.838Z,6.00
2023-05-24T13:44:19.965Z,6.00
2023-05-24T13:46:48.112Z,4.60
2023-05-24T13:49:16.196Z,5.20
2023-05-24T13:51:44.300Z,7.00
2023-05-24T13:54:12.625Z,6.50
2023-05-24T13:56:40.727Z,5.00
2023-05-24T13:59:10.136Z,5.00
2023-05-24T14:01:39.381Z,5.80
2023-05-24T14:04:07.962Z,5.00
2023-05-24T14:06:37.675Z,5.00
2023-05-24T14:09:07.098Z,4.50
2023-05-24T14:11:35.262Z,5.00
2023-05-24T14:16:37.067Z,7.00
2023-05-24T14:19:05.692Z,5.40
2023-05-24T14:21:33.880Z,5.80
2023-05-24T14:24:01.999Z,6.00
2023-05-24T14:26:30.070Z,4.00
2023-05-24T14:28:58.483Z,6.00
2023-05-24T14:31:26.570Z,6.00
2023-05-24T14:33:56.037Z,6.00
2023-05-24T14:36:24.098Z,5.00
2023-05-24T14:38:52.335Z,5.00
2023-05-24T14:41:20.664Z,5.00
2023-05-24T14:43:48.968Z,6.00
2023-05-24T14:46:17.138Z,6.60
2023-05-24T14:48:45.266Z,5.60
2023-05-24T14:51:14.694Z,4.50
2023-05-24T14:53:42.790Z,5.50
2023-05-24T14:56:10.901Z,4.00
2023-05-24T14:58:38.995Z,6.00
2023-05-24T15:01:08.225Z,4.00
2023-05-24T15:03:36.612Z,6.00
2023-05-24T15:06:05.535Z,5.00
2023-05-24T15:08:35.782Z,5.00
2023-05-24T15:11:05.151Z,5.40
2023-05-24T15:13:33.698Z,4.25
2023-05-24T15:16:01.862Z,4.00
2023-05-24T15:18:31.686Z,4.25
2023-05-24T15:20:59.849Z,4.40
2023-05-24T15:23:28.499Z,4.25
2023-05-24T15:25:57.959Z,6.50
2023-05-24T15:28:26.782Z,4.25
2023-05-24T15:30:55.217Z,4.00
2023-05-24T15:33:23.388Z,4.00
2023-05-24T15:35:51.500Z,4.60
2023-05-24T15:38:19.599Z,4.75
2023-05-24T15:40:47.701Z,5.00
2023-05-24T15:43:19.160Z,3.60
2023-05-24T15:45:47.417Z,5.20
2023-05-24T15:48:15.600Z,6.00
2023-05-24T15:51:09.209Z,6.00
2023-05-24T15:53:32.651Z,3.00
2023-05-24T15:56:00.851Z,4.20
2023-05-24T15:58:30.325Z,4.00
2023-05-24T16:00:58.390Z,3.80
2023-05-24T16:03:26.766Z,5.00
2023-05-24T16:05:54.967Z,5.00
2023-05-24T16:08:27.870Z,5.00
2023-05-24T16:10:56.289Z,4.25
2023-05-24T16:13:24.444Z,2.60
2023-05-24T16:15:53.900Z,4.25
2023-05-24T16:18:22.988Z,4.00
2023-05-24T16:20:51.785Z,2.00
2023-05-24T16:23:23.064Z,4.00
2023-05-24T16:25:51.522Z,4.00
2023-05-24T16:28:23.933Z,4.25
2023-05-24T16:30:56.050Z,3.00
2023-05-24T16:33:24.791Z,2.60
2023-05-24T16:35:56.201Z,4.00
2023-05-24T16:38:24.620Z,4.00
2023-05-24T16:40:52.748Z,1.00
2023-05-24T16:43:21.596Z,3.00
2023-05-24T16:45:49.936Z,4.00
2023-05-24T16:48:21.412Z,2.00
2023-05-24T16:50:50.511Z,4.00
2023-05-24T16:53:20.462Z,4.40
2023-05-24T16:55:53.606Z,4.00
2023-05-24T16:58:21.711Z,2.60
2023-05-24T17:00:49.802Z,4.60
2023-05-24T17:03:22.131Z,2.00
2023-05-24T17:05:50.423Z,4.00
2023-05-24T17:08:19.003Z,3.80
2023-05-24T17:10:47.059Z,4.00
2023-05-24T17:13:15.156Z,2.00
2023-05-24T17:15:43.241Z,2.00
2023-05-24T17:18:11.575Z,3.40
2023-05-24T17:20:41.219Z,2.20
2023-05-24T17:23:09.702Z,3.80
2023-05-24T17:25:37.774Z,3.00
2023-05-24T17:28:05.876Z,3.00
2023-05-24T17:30:33.937Z,3.60
2023-05-24T17:33:02.050Z,3.00
2023-05-24T17:35:30.135Z,3.00
2023-05-24T17:37:59.594Z,3.60
2023-05-24T17:40:27.749Z,4.00
2023-05-24T17:42:55.938Z,2.75
2023-05-24T17:45:24.030Z,2.80
2023-05-24T17:47:52.166Z,3.00
2023-05-24T17:50:20.268Z,2.00
2023-05-24T17:52:48.330Z,3.00
2023-05-24T17:55:17.990Z,4.00
2023-05-24T17:57:46.189Z,2.00
2023-05-24T18:00:15.107Z,5.00
2023-05-24T18:02:47.029Z,3.40
2023-05-24T18:05:16.089Z,3.00
2023-05-24T18:07:44.229Z,3.50
2023-05-24T18:10:12.865Z,3.80
2023-05-24T18:12:42.723Z,4.00
2023-05-24T18:15:11.642Z,4.00
2023-05-24T18:17:39.752Z,5.00
2023-05-24T18:20:08.518Z,3.00
2023-05-24T18:22:36.861Z,3.00
2023-05-24T18:25:05.260Z,2.80
2023-05-24T18:27:33.357Z,4.00
2023-05-24T18:30:03.936Z,2.00
2023-05-24T18:32:32.167Z,4.00
2023-05-24T18:35:00.333Z,4.00
2023-05-24T18:37:28.421Z,5.00
2023-05-24T18:39:56.501Z,5.00
2023-05-24T18:42:24.600Z,4.50
2023-05-24T18:44:52.671Z,5.00
2023-05-24T18:47:22.166Z,2.00
2023-05-24T18:49:50.251Z,2.60
2023-05-24T18:52:18.809Z,3.00
2023-05-24T18:54:46.873Z,6.80
2023-05-24T18:57:14.984Z,5.00
2023-05-24T18:59:43.031Z,5.00
2023-05-24T19:02:11.190Z,5.00
2023-05-24T19:04:40.700Z,4.50
2023-05-24T19:07:09.104Z,5.00
2023-05-24T19:09:37.175Z,4.25
2023-05-24T19:12:05.882Z,4.40
2023-05-24T19:14:34.001Z,5.50
2023-05-24T19:17:02.244Z,3.40
2023-05-24T19:19:30.551Z,6.00
2023-05-24T19:22:00.012Z,3.60
2023-05-24T19:24:28.103Z,4.50
2023-05-24T19:26:56.267Z,5.00
2023-05-24T19:29:24.366Z,5.00
2023-05-24T19:31:52.474Z,4.50
2023-05-24T19:34:20.695Z,5.75
2023-05-24T19:36:48.784Z,5.40
2023-05-24T19:39:18.268Z,5.20
2023-05-24T19:41:46.393Z,5.40
2023-05-24T19:44:14.539Z,6.00
2023-05-24T19:46:42.693Z,4.40
2023-05-24T19:49:12.272Z,6.50
2023-05-24T19:51:40.421Z,5.00
2023-05-24T19:54:09.355Z,5.00
2023-05-24T19:56:38.877Z,4.25
2023-05-24T19:59:07.456Z,5.00
2023-05-24T20:01:35.856Z,5.00
2023-05-24T20:04:04.115Z,7.40
2023-05-24T20:06:33.215Z,5.00
2023-05-24T20:09:01.311Z,6.00
2023-05-24T20:11:29.436Z,6.60
2023-05-24T20:13:59.027Z,5.00
2023-05-24T20:16:27.229Z,5.00
2023-05-24T20:18:55.454Z,6.00
2023-05-24T20:21:23.599Z,7.00
2023-05-24T20:23:57.622Z,6.00
2023-05-24T20:26:26.568Z,7.00
2023-05-24T20:28:54.740Z,7.00
2023-05-24T20:31:24.263Z,6.00
2023-05-24T20:33:52.992Z,6.00
2023-05-24T20:36:22.215Z,7.00
2023-05-24T20:38:50.451Z,8.00
2023-05-24T20:41:18.539Z,9.00
2023-05-24T20:43:46.754Z,8.75
2023-05-24T20:46:14.974Z,12.00
2023-05-24T20:48:45.022Z,8.00
2023-05-24T20:51:13.117Z,7.75
2023-05-24T20:53:41.359Z,7.20
2023-05-24T20:56:09.481Z,9.20
2023-05-24T20:58:37.632Z,7.00
2023-05-24T21:01:05.757Z,8.40
2023-05-24T21:03:34.013Z,8.00
2023-05-24T21:06:03.505Z,8.00
2023-05-24T21:08:32.124Z,7.00
2023-05-24T21:11:00.180Z,7.00
2023-05-24T21:13:28.333Z,7.60
2023-05-24T21:15:56.390Z,9.00
2023-05-24T21:18:24.488Z,8.00
2023-05-24T21:20:52.584Z,7.00
2023-05-24T21:23:22.046Z,7.60
2023-05-24T21:25:50.137Z,7.00
2023-05-24T21:28:18.238Z,6.00
2023-05-24T21:30:46.363Z,8.00
2023-05-24T21:33:14.425Z,9.00
2023-05-24T21:35:42.741Z,8.00
2023-05-24T21:38:11.037Z,8.00
2023-05-24T21:40:40.727Z,9.00
2023-05-24T21:43:12.192Z,6.50
2023-05-24T21:45:40.389Z,7.60
2023-05-24T21:48:08.683Z,6.00
2023-05-24T21:50:36.825Z,9.00
2023-05-24T21:53:04.879Z,7.40
2023-05-24T21:55:32.972Z,9.00
2023-05-24T21:58:02.393Z,7.00
2023-05-24T22:00:30.667Z,10.00
2023-05-24T22:02:58.957Z,11.00
2023-05-24T22:05:42.860Z,9.00
2023-05-24T22:08:11.865Z,9.40
2023-05-24T22:10:39.953Z,8.20
2023-05-24T22:13:09.448Z,9.00
2023-05-24T22:15:37.496Z,9.00
2023-05-24T22:18:05.941Z,6.00
2023-05-24T22:20:34.272Z,9.25
2023-05-24T22:23:02.992Z,9.60
2023-05-24T22:25:31.077Z,9.20
2023-05-24T22:27:59.169Z,9.40
2023-05-24T22:30:30.129Z,10.00
2023-05-24T22:32:58.253Z,7.80
2023-05-24T22:35:26.504Z,6.80
2023-05-24T22:37:54.631Z,12.00
2023-05-24T22:40:22.745Z,8.00
2023-05-24T22:42:50.847Z,8.00
2023-05-24T22:45:19.304Z,8.60
2023-05-24T22:47:49.290Z,10.00
2023-05-24T22:50:17.588Z,7.60
2023-05-24T22:52:46.757Z,9.00
2023-05-24T22:55:14.870Z,8.25
2023-05-24T22:57:42.936Z,9.20
2023-05-24T23:00:12.270Z,7.80
2023-05-24T23:02:40.378Z,7.50
2023-05-24T23:05:11.627Z,9.00
2023-05-24T23:07:40.000Z,7.00
2023-05-24T23:10:09.469Z,8.00
2023-05-24T23:12:37.568Z,8.00
2023-05-24T23:15:06.629Z,12.60
2023-05-24T23:17:34.826Z,7.00
2023-05-24T23:20:05.210Z,9.00
2023-05-24T23:22:37.622Z,9.20
2023-05-24T23:25:06.514Z,8.00
2023-05-24T23:27:34.612Z,10.00
2023-05-24T23:30:02.672Z,7.60
2023-05-24T23:32:30.892Z,7.00
2023-05-24T23:34:58.948Z,9.00
2023-05-24T23:37:27.093Z,9.00
2023-05-24T23:39:56.705Z,8.20
2023-05-24T23:42:24.801Z,6.50
2023-05-24T23:44:52.868Z,7.00
2023-05-24T23:47:21.233Z,8.00
2023-05-24T23:49:49.301Z,8.75
2023-05-24T23:52:17.391Z,9.00
2023-05-24T23:54:45.524Z,8.00
2023-05-24T23:57:15.060Z,6.00
2023-05-24T23:59:43.256Z,6.00
